Flight Track Log - Related Links

Times and Time Zones

All times are in EDT time to prevent confusion due to time zone crossing. See the UAL4695 flight status page for this flight to view local times or setup timezone preferences in your user account.

Time Position Orientation Groundspeed Altitude Reporting Facility
EDT Latitude Longitude Course Direction KTS MPH feet Rate Location/Type
Sun 09:26:05 PM 40.7167 -74.1500 40° Northeast 159 183 1,400  Level New York TRACON
Sun 09:27:05 PM 40.7500 -74.1167 37° Northeast 218 251 3,600 1,699 Climbing New York TRACON
Sun 09:28:00 PM 40.8966 -73.9351 21° North  Level FlightAware Approximate
Sun 09:28:51 PM 40.8206 -73.9925 53° Northeast 241 277 6,100  Level Boston Center
Sun 09:29:00 PM 40.9630 -73.8536 37° Northeast  Level FlightAware Approximate
Sun 09:29:51 PM 40.8361 -73.9022 77° East 236 272 8,900  Level Boston Center
Sun 09:30:00 PM 41.0374 -73.7747 40° Northeast  Level FlightAware Approximate
Sun 09:30:51 PM 40.8786 -73.8400 48° Northeast 248 285 9,900  Level Boston Center
Sun 09:31:00 PM 41.1053 -73.6983 40° Northeast  Level FlightAware Approximate
Sun 09:31:51 PM 40.9614 -73.7292 45° Northeast 307 353 9,900  Level Boston Center
Sun 09:32:51 PM 41.0269 -73.6453 44° Northeast 340 391 10,000 950 Climbing Boston Center
Sun 09:33:51 PM 41.0986 -73.5475 46° Northeast 345 397 11,800 2,200 Climbing Boston Center
Sun 09:34:51 PM 41.1786 -73.4769 34° Northeast 345 397 14,400 2,000 Climbing Boston Center
Sun 09:35:51 PM 41.2519 -73.4342 24° Northeast 345 397 15,800 1,850 Climbing Boston Center
Sun 09:36:51 PM 41.3692 -73.3750 21° North 364 419 18,100 1,700 Climbing Boston Center
Sun 09:37:51 PM 41.4694 -73.3183 23° Northeast 373 429 19,200 1,150 Climbing Boston Center
Sun 09:38:51 PM 41.5181 -73.2636 40° Northeast 381 438 20,400 1,750 Climbing Boston Center
Sun 09:39:51 PM 41.6478 -73.1764 27° Northeast 369 425 22,700 1,300 Climbing Boston Center
Sun 09:40:51 PM 41.7603 -73.1886 355° North 369 425 23,000 149 Climbing Boston Center
Sun 09:41:52 PM 41.8831 -73.2014 356° North 396 456 23,000  Level Boston Center
Sun 09:42:51 PM 42.0081 -73.2139 356° North 434 499 23,000  Level Boston Center
Sun 09:43:51 PM 42.1308 -73.2267 356° North 447 514 23,000  Level Boston Center
Sun 09:44:51 PM 42.2497 -73.2394 355° North 441 507 23,000 -450 Level Boston Center
Sun 09:45:51 PM 42.3647 -73.1764 22° Northeast 435 501 22,100 -1,000 Descending Boston Center
Sun 09:46:51 PM 42.4406 -73.0394 53° Northeast 422 486 21,000 -1,050 Descending Boston Center
Sun 09:47:51 PM 42.5078 -72.8964 57° Northeast 432 497 20,000 -864 Descending Boston Center
Sun 09:49:03 PM 42.5875 -72.7333 56° Northeast 432 497 19,100 -773 Descending Boston Center
Sun 09:50:03 PM 42.6442 -72.6150 57° Northeast 427 491 18,300 -1,400 Descending Boston Center
Sun 09:51:03 PM 42.7047 -72.4881 57° Northeast 416 479 16,300 -2,000 Descending Boston Center
Sun 09:52:03 PM 42.7631 -72.3636 57° Northeast 403 464 14,300 -1,850 Descending Boston Center
Sun 09:53:03 PM 42.7961 -72.2392 70° East 364 419 12,600 -1,550 Descending Boston Center
Sun 09:54:03 PM 42.8125 -72.1147 80° East 324 373 11,200 -1,450 Descending Boston Center
Sun 09:55:03 PM 42.8436 -72.0239 65° Northeast 289 333 9,700 -1,400 Descending Boston Center
Sun 09:56:03 PM 42.8764 -71.9272 65° Northeast 263 303 8,400 -1,250 Descending Boston Center
Sun 09:57:03 PM 42.9033 -71.8506 64° Northeast 244 281 7,200 -1,300 Descending Boston Center
Sun 09:58:03 PM 42.9381 -71.7567 63° Northeast 239 275 5,800 -1,400 Descending Boston Center
Sun 09:59:03 PM 42.9647 -71.6825 64° Northeast 239 275 4,400 -1,350 Descending Boston Center
Sun 10:00:03 PM 42.9933 -71.5969 65° Northeast 234 269 3,100 -1,000 Descending Boston Center
Sun 10:01:03 PM 43.0117 -71.5344 68° East 211 243 2,400 -700 Descending Boston Center

Login

Don't have an account? Register now (free) for customized features, flight alerts, and more!